Time;durP1;ratioP1;P1;durP2;ratioP2;P2;SDS_P1;SDS_P2;PMS_P1;PMS_P2;Temp;Humidity;BMP_temperature;BMP_pressure;BME280_temperature;BME280_humidity;BME280_pressure;Samples;Min_cycle;Max_cycle;Signal;HPM_P1;HPM_P2
2023/03/19 00:02:23;;;;;;;5.23;3.03;;;9.20;99.90;;;;;;5035942;28;20170;-81
2023/03/19 00:04:49;;;;;;;3.67;2.80;;;9.20;99.90;;;;;;5036512;28;20247;-81
2023/03/19 00:07:15;;;;;;;3.63;3.13;;;9.20;99.90;;;;;;5036579;28;20196;-82
2023/03/19 00:09:41;;;;;;;3.50;3.10;;;9.20;99.90;;;;;;5035886;28;20177;-82
2023/03/19 00:12:08;;;;;;;6.37;3.30;;;9.20;99.90;;;;;;5037041;28;20196;-82
2023/03/19 00:14:34;;;;;;;4.67;3.10;;;9.20;99.90;;;;;;5036959;28;20185;-82
2023/03/19 00:17:00;;;;;;;4.57;3.80;;;9.20;99.90;;;;;;5037102;28;20197;-82
2023/03/19 00:19:26;;;;;;;8.30;5.10;;;9.20;99.90;;;;;;5034904;28;20181;-82
2023/03/19 00:21:51;;;;;;;5.80;4.20;;;9.20;99.90;;;;;;5035658;28;20178;-82
2023/03/19 00:24:17;;;;;;;6.30;3.80;;;9.20;99.90;;;;;;5035695;28;20178;-81
2023/03/19 00:26:43;;;;;;;4.17;2.97;;;9.30;99.90;;;;;;5036415;28;20189;-82
2023/03/19 00:29:09;;;;;;;7.10;3.27;;;9.30;99.90;;;;;;5036708;28;20226;-82
2023/03/19 00:31:34;;;;;;;4.70;3.70;;;9.20;99.90;;;;;;5035603;28;20193;-82
2023/03/19 00:34:01;;;;;;;4.33;2.90;;;9.20;99.90;;;;;;5036129;28;20215;-82
2023/03/19 00:36:27;;;;;;;4.03;3.30;;;9.20;99.90;;;;;;5035478;28;20180;-82
2023/03/19 00:38:53;;;;;;;5.50;3.00;;;9.20;99.90;;;;;;5035689;28;20327;-82
2023/03/19 00:41:20;;;;;;;4.93;3.03;;;9.20;99.90;;;;;;5035320;28;20619;-82
2023/03/19 00:43:46;;;;;;;2.77;2.50;;;9.20;99.90;;;;;;5035529;28;20225;-82
2023/03/19 00:46:13;;;;;;;3.90;3.10;;;9.20;99.90;;;;;;5035162;28;20182;-82
2023/03/19 00:48:39;;;;;;;3.13;2.70;;;9.20;99.90;;;;;;5035157;28;20197;-82
2023/03/19 00:51:09;;;;;;;4.50;2.90;;;9.20;99.90;;;;;;5036467;28;20213;-82
2023/03/19 00:53:39;;;;;;;6.17;3.20;;;9.10;99.90;;;;;;5035009;28;20206;-82
2023/03/19 00:56:06;;;;;;;4.80;3.20;;;9.10;99.90;;;;;;5035225;28;20189;-81
2023/03/19 00:58:32;;;;;;;3.83;3.10;;;9.20;99.90;;;;;;5035021;28;20233;-82
2023/03/19 01:00:58;;;;;;;3.33;2.80;;;9.10;99.90;;;;;;5038402;28;20177;-82
2023/03/19 01:03:23;;;;;;;4.77;3.17;;;9.00;99.90;;;;;;5038858;28;20185;-82
2023/03/19 01:05:49;;;;;;;5.13;3.13;;;8.90;99.90;;;;;;5040979;28;20182;-82
2023/03/19 01:08:16;;;;;;;4.00;2.70;;;8.90;99.90;;;;;;5039613;28;20204;-82
2023/03/19 01:10:43;;;;;;;3.70;3.30;;;8.90;99.90;;;;;;5040541;28;20189;-83
2023/03/19 01:13:09;;;;;;;5.20;3.20;;;8.90;99.90;;;;;;5039177;28;20205;-82
2023/03/19 01:15:37;;;;;;;5.03;3.13;;;8.80;99.90;;;;;;5040357;28;20179;-82
2023/03/19 01:18:02;;;;;;;3.23;2.37;;;8.80;99.90;;;;;;5039031;28;20776;-82
2023/03/19 01:20:28;;;;;;;5.40;2.90;;;8.60;99.90;;;;;;5040241;28;20198;-82
2023/03/19 01:22:53;;;;;;;4.50;2.80;;;8.50;99.90;;;;;;5040679;28;20173;-82
2023/03/19 01:25:19;;;;;;;5.03;2.87;;;8.50;99.90;;;;;;5040580;28;20177;-81
2023/03/19 01:27:45;;;;;;;2.93;2.60;;;8.50;99.90;;;;;;5038860;28;20823;-82
2023/03/19 01:30:10;;;;;;;3.27;2.33;;;8.50;99.90;;;;;;5038894;28;20180;-81
2023/03/19 01:32:36;;;;;;;2.97;2.40;;;8.40;99.90;;;;;;5039182;28;20201;-82
2023/03/19 01:35:01;;;;;;;4.80;2.97;;;8.40;99.90;;;;;;5040490;28;20565;-82
2023/03/19 01:37:28;;;;;;;6.60;2.50;;;8.20;99.90;;;;;;5040400;28;20213;-82
2023/03/19 01:39:53;;;;;;;4.17;2.47;;;8.20;99.90;;;;;;5039197;28;20185;-82
2023/03/19 01:42:19;;;;;;;3.13;2.53;;;8.30;99.90;;;;;;5040276;28;20671;-82
2023/03/19 01:44:44;;;;;;;2.73;2.20;;;8.30;99.90;;;;;;5040379;28;20234;-80
2023/03/19 01:47:18;;;;;;;3.47;2.50;;;8.30;99.90;;;;;;5039377;28;20550;-82
2023/03/19 01:49:49;;;;;;;3.47;2.23;;;8.30;99.90;;;;;;5039084;28;20172;-82
2023/03/19 01:52:15;;;;;;;3.60;2.00;;;8.40;99.90;;;;;;5039384;28;20159;-82
2023/03/19 01:54:42;;;;;;;3.80;2.33;;;8.40;99.90;;;;;;5038518;28;20180;-81
2023/03/19 01:57:10;;;;;;;2.43;2.17;;;8.50;99.90;;;;;;5039276;28;20181;-82
2023/03/19 01:59:39;;;;;;;4.23;2.10;;;8.40;99.90;;;;;;5039931;28;20198;-80
2023/03/19 02:02:19;;;;;;;2.47;2.00;;;8.50;99.90;;;;;;5038599;28;20197;-82
2023/03/19 02:04:48;;;;;;;3.93;2.33;;;8.50;99.90;;;;;;5040208;28;20265;-82
2023/03/19 02:07:15;;;;;;;2.40;2.20;;;8.40;99.90;;;;;;5038279;28;20284;-81
2023/03/19 02:09:40;;;;;;;7.27;2.40;;;8.50;99.90;;;;;;5040008;28;20179;-82
2023/03/19 02:12:07;;;;;;;5.53;1.93;;;8.50;99.90;;;;;;5039047;28;20174;-82
2023/03/19 02:14:33;;;;;;;4.60;2.47;;;8.50;99.90;;;;;;5038662;28;20201;-82
2023/03/19 02:16:59;;;;;;;2.60;2.20;;;8.40;99.90;;;;;;5039249;28;20174;-82
2023/03/19 02:19:35;;;;;;;4.63;2.67;;;8.50;99.90;;;;;;5039797;28;20172;-82
2023/03/19 02:22:03;;;;;;;3.53;3.20;;;8.40;99.90;;;;;;5039915;28;20201;-82
2023/03/19 02:24:37;;;;;;;3.20;2.30;;;8.40;99.90;;;;;;5039919;28;20181;-82
2023/03/19 02:27:06;;;;;;;4.67;2.63;;;8.40;99.90;;;;;;5040380;28;20170;-82
2023/03/19 02:29:32;;;;;;;2.83;2.53;;;8.30;99.90;;;;;;5038479;28;20198;-81
2023/03/19 02:31:58;;;;;;;3.53;2.60;;;8.30;99.90;;;;;;5038071;28;20189;-82
2023/03/19 02:34:23;;;;;;;3.10;2.33;;;8.20;99.90;;;;;;5038568;28;20227;-82
2023/03/19 02:37:04;;;;;;;4.07;2.80;;;8.20;99.90;;;;;;5040112;28;20189;-82
2023/03/19 02:39:37;;;;;;;3.27;2.47;;;8.30;99.90;;;;;;5130337;22;20283;-82
2023/03/19 02:42:03;;;;;;;3.80;2.47;;;8.20;99.90;;;;;;5061171;28;20223;-83
2023/03/19 02:44:29;;;;;;;4.87;2.73;;;8.20;99.90;;;;;;5063328;28;20186;-83
2023/03/19 02:46:55;;;;;;;4.23;2.77;;;8.20;99.90;;;;;;5067706;28;20178;-83
2023/03/19 02:49:20;;;;;;;3.77;2.80;;;8.20;99.90;;;;;;5082293;28;20196;-83
2023/03/19 02:51:46;;;;;;;3.33;2.37;;;8.10;99.90;;;;;;5080712;28;20211;-83
2023/03/19 02:54:11;;;;;;;5.90;2.70;;;8.10;99.90;;;;;;5081235;28;20222;-83
2023/03/19 02:56:37;;;;;;;4.90;2.50;;;8.10;99.90;;;;;;5081338;28;20222;-84
2023/03/19 02:59:03;;;;;;;3.10;2.10;;;8.10;99.90;;;;;;5082017;28;20602;-83
2023/03/19 03:01:28;;;;;;;3.07;2.23;;;8.10;99.90;;;;;;5083168;28;20191;-83
2023/03/19 03:03:54;;;;;;;4.00;2.33;;;8.00;99.90;;;;;;5083961;28;20624;-83
2023/03/19 03:06:20;;;;;;;4.27;2.50;;;7.90;99.90;;;;;;5083012;28;20174;-83
2023/03/19 03:08:46;;;;;;;4.27;2.30;;;7.80;99.90;;;;;;5084144;28;20194;-83
2023/03/19 03:11:11;;;;;;;3.73;2.10;;;7.90;99.90;;;;;;5084008;28;20206;-83
2023/03/19 03:13:37;;;;;;;4.20;2.13;;;7.80;99.90;;;;;;5075695;28;20199;-83
2023/03/19 03:16:02;;;;;;;4.50;2.27;;;7.80;99.90;;;;;;5077081;28;20224;-83
2023/03/19 03:18:28;;;;;;;2.10;1.90;;;7.70;99.90;;;;;;5076640;28;20200;-83
2023/03/19 03:20:54;;;;;;;2.50;1.80;;;7.70;99.90;;;;;;5075024;28;20252;-82
2023/03/19 03:23:20;;;;;;;2.60;2.00;;;7.70;99.90;;;;;;5073843;28;20178;-83
2023/03/19 03:25:49;;;;;;;4.23;2.50;;;7.70;99.90;;;;;;5074867;28;20174;-83
2023/03/19 03:28:15;;;;;;;3.30;2.17;;;7.70;99.90;;;;;;5076774;28;20203;-83
2023/03/19 03:30:41;;;;;;;3.40;2.00;;;7.70;99.90;;;;;;5076548;28;20235;-83
2023/03/19 03:33:07;;;;;;;8.43;2.20;;;7.80;99.90;;;;;;5076615;28;20185;-83
2023/03/19 03:35:32;;;;;;;2.73;2.00;;;7.80;99.90;;;;;;5075165;28;20195;-83
2023/03/19 03:37:58;;;;;;;2.43;2.13;;;7.80;99.90;;;;;;5075219;28;20191;-83
2023/03/19 03:40:23;;;;;;;3.67;2.00;;;7.90;99.90;;;;;;5076781;28;20173;-82
2023/03/19 03:42:49;;;;;;;4.27;1.90;;;7.90;99.90;;;;;;5076746;28;20182;-83
2023/03/19 03:45:15;;;;;;;4.70;2.10;;;7.90;99.90;;;;;;5074773;28;20171;-83
2023/03/19 03:47:41;;;;;;;5.27;2.20;;;7.90;99.90;;;;;;5074936;28;20645;-83
2023/03/19 03:50:09;;;;;;;2.80;1.97;;;7.90;99.90;;;;;;5075845;28;20175;-83
2023/03/19 03:52:35;;;;;;;2.50;1.90;;;7.90;99.90;;;;;;5074917;28;20185;-83
2023/03/19 03:55:01;;;;;;;2.90;1.87;;;7.90;99.90;;;;;;5074649;28;20763;-83
2023/03/19 03:57:27;;;;;;;3.20;2.23;;;7.90;99.90;;;;;;5076410;28;20170;-83
2023/03/19 03:59:53;;;;;;;2.73;2.30;;;7.90;99.90;;;;;;5076201;28;20652;-82
2023/03/19 04:02:19;;;;;;;2.87;2.30;;;7.90;99.90;;;;;;5074829;28;20266;-83
2023/03/19 04:04:44;;;;;;;4.03;2.50;;;7.80;99.90;;;;;;5074817;28;20175;-83
2023/03/19 04:07:11;;;;;;;3.97;2.57;;;7.80;99.90;;;;;;5074717;28;20178;-83
2023/03/19 04:09:36;;;;;;;3.47;2.20;;;7.90;99.90;;;;;;5074885;28;20238;-82
2023/03/19 04:12:02;;;;;;;2.47;2.20;;;7.90;99.90;;;;;;5075243;28;20175;-83
2023/03/19 04:14:28;;;;;;;2.57;2.20;;;7.90;99.90;;;;;;5075114;28;20242;-83
2023/03/19 04:16:54;;;;;;;2.70;1.90;;;7.90;99.90;;;;;;5075060;28;20189;-83
2023/03/19 04:19:19;;;;;;;2.47;2.27;;;8.00;99.90;;;;;;5074857;28;20196;-83
2023/03/19 04:21:45;;;;;;;3.30;2.30;;;7.90;99.90;;;;;;5074317;28;20260;-83
2023/03/19 04:24:11;;;;;;;2.57;2.30;;;7.90;99.90;;;;;;5075273;28;20196;-83
2023/03/19 04:26:37;;;;;;;5.03;2.30;;;7.80;99.90;;;;;;5074888;28;20177;-83
2023/03/19 04:29:04;;;;;;;5.27;2.40;;;7.80;99.90;;;;;;5076725;28;20222;-83
2023/03/19 04:31:29;;;;;;;3.43;2.40;;;7.80;99.90;;;;;;5074736;28;20206;-83
2023/03/19 04:33:55;;;;;;;3.50;2.30;;;7.80;99.90;;;;;;5075147;28;20193;-83
2023/03/19 04:36:21;;;;;;;2.63;1.93;;;7.70;99.90;;;;;;5074259;28;20554;-83
2023/03/19 04:38:46;;;;;;;2.93;2.23;;;7.60;99.90;;;;;;5074707;28;20213;-83
2023/03/19 04:41:15;;;;;;;3.87;2.30;;;7.50;99.90;;;;;;5076643;28;20703;-83
2023/03/19 04:43:40;;;;;;;3.40;1.97;;;7.50;99.90;;;;;;5075254;28;20184;-83
2023/03/19 04:46:07;;;;;;;4.33;2.43;;;7.60;99.90;;;;;;5074962;28;20173;-83
2023/03/19 04:48:34;;;;;;;3.60;2.27;;;7.60;99.90;;;;;;5076040;28;20200;-83
2023/03/19 04:51:01;;;;;;;4.43;2.47;;;7.60;99.90;;;;;;5074451;28;20173;-83
2023/03/19 04:53:27;;;;;;;2.43;2.23;;;7.50;99.90;;;;;;5074500;28;20201;-83
2023/03/19 04:55:53;;;;;;;3.07;2.20;;;7.50;99.90;;;;;;5075582;28;20604;-82
2023/03/19 04:58:19;;;;;;;4.20;2.60;;;7.50;99.90;;;;;;5075413;28;20243;-83
2023/03/19 05:00:46;;;;;;;3.43;2.50;;;7.50;99.90;;;;;;5057458;28;20206;-82
2023/03/19 05:03:12;;;;;;;4.00;2.07;;;7.60;99.90;;;;;;5064947;28;20665;-83
2023/03/19 05:05:38;;;;;;;2.97;2.30;;;7.60;99.90;;;;;;5076851;28;20706;-81
2023/03/19 05:08:04;;;;;;;4.00;2.50;;;7.70;99.90;;;;;;5074733;28;20217;-83
2023/03/19 05:10:29;;;;;;;4.13;2.20;;;7.70;99.90;;;;;;5075616;28;20176;-83
2023/03/19 05:12:55;;;;;;;2.80;2.10;;;7.70;99.90;;;;;;5078777;28;20219;-85
2023/03/19 05:15:20;;;;;;;2.63;2.00;;;7.80;99.90;;;;;;5077737;28;20196;-85
2023/03/19 05:17:47;;;;;;;3.97;2.30;;;7.70;99.90;;;;;;5076031;28;20174;-86
2023/03/19 05:20:13;;;;;;;2.30;2.10;;;7.70;99.90;;;;;;5077517;28;20172;-86
2023/03/19 05:22:38;;;;;;;2.53;2.33;;;7.60;99.90;;;;;;5076057;28;20195;-86
2023/03/19 05:25:05;;;;;;;2.97;2.30;;;7.70;99.90;;;;;;5076680;28;20171;-85
2023/03/19 05:27:31;;;;;;;2.70;2.30;;;7.70;99.90;;;;;;5078589;28;20593;-86
2023/03/19 05:29:56;;;;;;;4.00;2.40;;;7.70;99.90;;;;;;5078462;28;20192;-86
2023/03/19 05:32:22;;;;;;;4.07;2.20;;;7.70;99.90;;;;;;5077985;28;20170;-85
2023/03/19 05:34:48;;;;;;;2.20;2.00;;;7.70;99.90;;;;;;5077432;28;20193;-86
2023/03/19 05:37:13;;;;;;;2.67;2.00;;;7.70;99.90;;;;;;5077670;28;20166;-86
2023/03/19 05:39:39;;;;;;;2.37;2.00;;;7.80;99.90;;;;;;5077980;28;20203;-85
2023/03/19 05:42:05;;;;;;;3.20;2.20;;;7.70;99.90;;;;;;5078337;28;20321;-86
2023/03/19 05:44:31;;;;;;;6.50;2.20;;;7.80;99.90;;;;;;5078651;28;20177;-86
2023/03/19 05:46:56;;;;;;;3.53;2.10;;;7.80;99.90;;;;;;5080068;28;20181;-86
2023/03/19 05:49:22;;;;;;;2.60;2.13;;;7.80;99.90;;;;;;5081815;28;20616;-86
2023/03/19 05:51:48;;;;;;;3.53;2.27;;;7.80;99.90;;;;;;5077803;28;20219;-86
2023/03/19 05:54:13;;;;;;;3.67;2.37;;;7.80;99.90;;;;;;5074413;28;20193;-85
2023/03/19 05:56:39;;;;;;;3.50;2.50;;;7.80;99.90;;;;;;5074714;28;20261;-85
2023/03/19 05:59:05;;;;;;;3.10;2.50;;;7.90;99.90;;;;;;5075934;28;20239;-85
2023/03/19 06:01:31;;;;;;;2.77;2.47;;;7.80;99.90;;;;;;5074252;28;20170;-85
2023/03/19 06:03:56;;;;;;;3.90;2.50;;;7.80;99.90;;;;;;5075735;28;20314;-85
2023/03/19 06:06:22;;;;;;;3.43;2.20;;;7.80;99.90;;;;;;5074481;28;20229;-86
2023/03/19 06:08:47;;;;;;;3.73;2.30;;;7.80;99.90;;;;;;5074003;28;20217;-87
2023/03/19 06:11:13;;;;;;;5.00;2.50;;;7.90;99.90;;;;;;5074224;28;20203;-87
2023/03/19 06:13:39;;;;;;;4.63;2.60;;;7.80;99.90;;;;;;5074087;28;20193;-88
2023/03/19 06:16:05;;;;;;;3.60;2.73;;;7.80;99.90;;;;;;5074235;28;20169;-87
2023/03/19 06:18:31;;;;;;;4.07;2.63;;;7.80;99.90;;;;;;5074096;28;20186;-87
2023/03/19 06:20:56;;;;;;;5.27;3.50;;;7.80;99.90;;;;;;5075109;28;20177;-87
2023/03/19 06:23:22;;;;;;;3.80;3.00;;;7.90;99.90;;;;;;5075863;28;20246;-88
2023/03/19 06:25:47;;;;;;;2.90;2.30;;;7.90;99.90;;;;;;5074057;28;20194;-86
2023/03/19 06:28:13;;;;;;;2.70;2.50;;;7.90;99.90;;;;;;5075515;28;20193;-88
2023/03/19 06:30:39;;;;;;;3.30;2.47;;;7.90;99.90;;;;;;5073846;28;20224;-87
2023/03/19 06:33:05;;;;;;;4.10;2.53;;;7.80;99.90;;;;;;5073828;28;20269;-86
2023/03/19 06:35:31;;;;;;;3.80;2.70;;;7.80;99.90;;;;;;5073598;28;20597;-90
2023/03/19 06:37:56;;;;;;;3.70;2.70;;;7.90;99.90;;;;;;5074855;28;20181;-87
2023/03/19 06:40:22;;;;;;;3.67;3.00;;;8.00;99.90;;;;;;5073863;28;20166;-88
2023/03/19 06:42:48;;;;;;;6.57;3.43;;;8.00;99.90;;;;;;5075078;28;20204;-88
2023/03/19 06:45:20;;;;;;;3.13;2.67;;;8.10;99.90;;;;;;5075573;28;20186;-88
2023/03/19 06:47:46;;;;;;;3.10;2.80;;;8.10;99.90;;;;;;5073629;28;20629;-88
2023/03/19 06:50:13;;;;;;;4.17;2.93;;;8.10;99.90;;;;;;5075480;28;20185;-87
2023/03/19 06:52:40;;;;;;;4.90;2.77;;;8.20;99.90;;;;;;5075209;28;20176;-88
2023/03/19 06:55:06;;;;;;;5.93;3.50;;;8.20;99.90;;;;;;5075609;28;20227;-82
2023/03/19 06:57:32;;;;;;;3.47;2.87;;;8.40;99.90;;;;;;5074841;28;20168;-84
2023/03/19 06:59:58;;;;;;;3.73;2.90;;;9.00;99.90;;;;;;5074386;28;20194;-83
2023/03/19 07:02:24;;;;;;;4.53;3.20;;;9.50;99.90;;;;;;5073097;28;20194;-84
2023/03/19 07:04:49;;;;;;;4.07;2.80;;;9.80;99.90;;;;;;5072941;28;20207;-83
2023/03/19 07:07:15;;;;;;;3.60;2.60;;;10.10;99.90;;;;;;5072714;28;20187;-84
2023/03/19 07:09:40;;;;;;;4.03;2.57;;;10.30;99.90;;;;;;5073803;28;20192;-84
2023/03/19 07:12:06;;;;;;;4.80;2.93;;;10.40;99.90;;;;;;5055164;28;20178;-84
2023/03/19 07:14:32;;;;;;;3.63;2.60;;;10.40;99.90;;;;;;5051310;28;20326;-85
2023/03/19 07:16:57;;;;;;;3.20;2.60;;;10.10;99.90;;;;;;5053801;28;20249;-85
2023/03/19 07:19:23;;;;;;;3.77;2.57;;;9.80;99.90;;;;;;5055785;28;20243;-86
2023/03/19 07:21:49;;;;;;;2.93;2.30;;;9.60;99.90;;;;;;5054244;28;20192;-84
2023/03/19 07:24:15;;;;;;;3.87;2.80;;;9.40;99.90;;;;;;5055901;28;20207;-85
2023/03/19 07:26:41;;;;;;;3.27;2.50;;;9.20;99.90;;;;;;5054246;28;20705;-85
2023/03/19 07:29:07;;;;;;;2.70;2.20;;;9.10;99.90;;;;;;5053254;28;20194;-84
2023/03/19 07:31:32;;;;;;;3.90;2.63;;;9.10;99.90;;;;;;5055381;28;20178;-85
2023/03/19 07:33:58;;;;;;;3.83;2.43;;;9.10;99.90;;;;;;5052540;28;20193;-87
2023/03/19 07:36:23;;;;;;;3.87;2.60;;;9.10;99.90;;;;;;5053929;28;20170;-85
2023/03/19 07:38:49;;;;;;;4.20;2.70;;;9.20;99.90;;;;;;5053861;28;20212;-86
2023/03/19 07:41:15;;;;;;;2.93;2.30;;;9.30;99.90;;;;;;5053897;28;20180;-82
2023/03/19 07:43:41;;;;;;;3.50;2.47;;;9.40;99.90;;;;;;5053566;28;20183;-82
2023/03/19 07:46:06;;;;;;;2.97;2.37;;;9.40;99.90;;;;;;5054438;28;20177;-83
2023/03/19 07:48:32;;;;;;;2.80;2.40;;;9.50;99.90;;;;;;5055160;28;20195;-83
2023/03/19 07:50:57;;;;;;;4.87;2.70;;;9.60;99.90;;;;;;5054602;28;20200;-81
2023/03/19 07:53:23;;;;;;;2.60;2.40;;;9.60;99.90;;;;;;5054045;28;20197;-80
2023/03/19 07:55:49;;;;;;;5.63;2.70;;;9.70;99.90;;;;;;5054731;28;20188;-83
2023/03/19 07:58:15;;;;;;;3.07;2.77;;;9.70;99.90;;;;;;5054529;28;20254;-83
2023/03/19 08:00:41;;;;;;;5.37;3.40;;;9.70;99.90;;;;;;5042363;28;20704;-82
2023/03/19 08:03:07;;;;;;;5.43;3.37;;;9.70;99.90;;;;;;5042105;28;20178;-83
2023/03/19 08:05:32;;;;;;;3.73;3.23;;;9.70;99.90;;;;;;5044010;28;20183;-83
2023/03/19 08:07:58;;;;;;;4.77;3.63;;;9.80;99.90;;;;;;5055394;28;20269;-83
2023/03/19 08:10:24;;;;;;;3.40;3.10;;;9.80;99.90;;;;;;5063956;28;20176;-83
2023/03/19 08:12:49;;;;;;;5.70;3.47;;;9.80;99.90;;;;;;5055199;28;20197;-83
2023/03/19 08:15:15;;;;;;;4.53;3.70;;;9.90;99.90;;;;;;5054870;28;20552;-81
2023/03/19 08:17:40;;;;;;;5.40;3.17;;;9.90;99.90;;;;;;5069740;28;20704;-84
2023/03/19 08:20:11;;;;;;;5.60;3.47;;;9.90;99.90;;;;;;5075049;28;20543;-83
2023/03/19 08:22:38;;;;;;;4.60;3.60;;;10.00;99.90;;;;;;5074627;28;20278;-84
2023/03/19 08:25:05;;;;;;;4.27;3.60;;;10.10;99.90;;;;;;5074204;28;20272;-83
2023/03/19 08:27:34;;;;;;;5.23;3.50;;;10.30;99.90;;;;;;5073757;28;20176;-81
2023/03/19 08:30:00;;;;;;;3.67;2.90;;;10.40;99.90;;;;;;5071589;28;20188;-83
2023/03/19 08:32:26;;;;;;;8.80;6.43;;;10.50;99.90;;;;;;5071640;28;20164;-84
2023/03/19 08:34:52;;;;;;;25.07;16.47;;;10.60;99.90;;;;;;5072422;28;20264;-84
2023/03/19 08:37:17;;;;;;;3.83;3.10;;;10.70;99.90;;;;;;5072125;28;20169;-83
2023/03/19 08:39:43;;;;;;;4.93;2.77;;;10.80;99.90;;;;;;5074560;28;20249;-84
2023/03/19 08:42:09;;;;;;;4.10;2.80;;;10.90;99.90;;;;;;5072756;28;20554;-83
2023/03/19 08:44:34;;;;;;;4.73;3.00;;;11.10;99.90;;;;;;5072938;28;20750;-84
2023/03/19 08:47:00;;;;;;;3.63;2.70;;;11.10;99.90;;;;;;5074232;28;20173;-86
2023/03/19 08:49:25;;;;;;;3.70;2.93;;;11.20;99.90;;;;;;5063911;28;20205;-86
2023/03/19 08:51:51;;;;;;;4.70;2.47;;;11.40;99.90;;;;;;5058264;28;20165;-86
2023/03/19 08:54:17;;;;;;;3.30;2.30;;;11.40;99.90;;;;;;5070296;28;20216;-86
2023/03/19 08:56:42;;;;;;;3.20;2.50;;;11.50;99.90;;;;;;5053654;28;20174;-88
2023/03/19 08:59:08;;;;;;;3.00;2.30;;;11.60;99.90;;;;;;5053462;28;20193;-85
2023/03/19 09:01:35;;;;;;;5.77;2.53;;;11.60;99.90;;;;;;5052877;28;20173;-83
2023/03/19 09:04:01;;;;;;;5.10;2.53;;;11.70;99.90;;;;;;5052914;28;20173;-85
2023/03/19 09:06:26;;;;;;;5.03;2.40;;;11.80;99.90;;;;;;5053615;28;20186;-85
2023/03/19 09:08:52;;;;;;;3.57;2.83;;;11.80;99.90;;;;;;5052286;28;20193;-85
2023/03/19 09:11:18;;;;;;;3.20;2.47;;;11.80;99.90;;;;;;5053334;28;20188;-85
2023/03/19 09:13:43;;;;;;;4.40;2.40;;;11.80;99.90;;;;;;5052098;28;20195;-85
2023/03/19 09:16:09;;;;;;;3.77;2.43;;;11.90;99.90;;;;;;5052621;28;20586;-85
2023/03/19 09:18:35;;;;;;;2.77;2.20;;;12.00;99.90;;;;;;5050359;28;20204;-85
2023/03/19 09:21:02;;;;;;;5.47;2.37;;;12.00;99.90;;;;;;5052899;28;20170;-83
2023/03/19 09:23:27;;;;;;;3.90;2.20;;;12.10;99.90;;;;;;5076412;28;20654;-87
2023/03/19 09:25:53;;;;;;;3.37;2.07;;;12.10;99.90;;;;;;5077107;28;20173;-85
2023/03/19 09:28:20;;;;;;;3.87;2.40;;;12.10;99.90;;;;;;5080851;28;20242;-85
2023/03/19 09:30:47;;;;;;;2.80;2.00;;;12.10;99.90;;;;;;5080234;28;20179;-85
2023/03/19 09:33:13;;;;;;;2.93;2.40;;;12.10;99.90;;;;;;5079004;28;20655;-86
2023/03/19 09:35:38;;;;;;;3.53;2.30;;;12.20;99.90;;;;;;5077012;28;20169;-86
2023/03/19 09:38:04;;;;;;;4.87;2.37;;;12.30;99.90;;;;;;5056261;28;20294;-85
2023/03/19 09:40:43;;;;;;;4.53;2.33;;;12.40;99.90;;;;;;5056615;28;20177;-85
2023/03/19 09:43:11;;;;;;;3.47;2.30;;;12.40;99.90;;;;;;5058412;28;20168;-85
2023/03/19 09:45:37;;;;;;;4.13;2.40;;;12.50;99.90;;;;;;5056406;28;20550;-85
2023/03/19 09:48:13;;;;;;;2.40;2.17;;;12.50;99.90;;;;;;5056630;28;20198;-85
2023/03/19 09:50:38;;;;;;;4.10;2.47;;;12.50;99.90;;;;;;5056219;28;20177;-84
2023/03/19 09:53:11;;;;;;;3.20;2.30;;;12.50;99.90;;;;;;5058293;28;20202;-85
2023/03/19 09:55:50;;;;;;;3.17;2.30;;;12.60;99.90;;;;;;5057328;28;20181;-85
2023/03/19 09:58:24;;;;;;;4.27;2.33;;;12.70;99.90;;;;;;5056932;28;20230;-85
2023/03/19 10:00:52;;;;;;;3.50;2.40;;;12.80;99.90;;;;;;5057019;28;20200;-84
2023/03/19 10:03:29;;;;;;;3.93;2.00;;;13.00;99.90;;;;;;5058756;28;20178;-85
2023/03/19 10:06:31;;;;;;;3.07;2.40;;;13.10;99.90;;;;;;5059297;28;20667;-85
2023/03/19 10:09:31;;;;;;;2.90;2.23;;;13.40;99.90;;;;;;5057377;28;20192;-85
2023/03/19 10:12:23;;;;;;;4.07;2.20;;;13.50;99.90;;;;;;5060543;28;20178;-86
2023/03/19 10:14:59;;;;;;;4.10;2.10;;;13.60;99.90;;;;;;5056745;28;20296;-86
2023/03/19 10:17:31;;;;;;;3.93;2.70;;;13.70;99.90;;;;;;5058788;28;20180;-86
2023/03/19 10:20:22;;;;;;;3.80;2.23;;;13.70;99.90;;;;;;5059031;28;20262;-86
2023/03/19 10:22:54;;;;;;;4.17;2.20;;;13.70;99.90;;;;;;5057946;28;20231;-85
2023/03/19 10:25:23;;;;;;;4.07;2.87;;;13.70;99.90;;;;;;5056979;28;20181;-86
2023/03/19 10:28:18;;;;;;;3.07;2.20;;;13.80;99.90;;;;;;5058499;28;20203;-87
2023/03/19 10:31:10;;;;;;;4.37;2.20;;;13.80;99.90;;;;;;5058015;28;20244;-86
2023/03/19 10:33:51;;;;;;;3.17;2.33;;;14.00;99.90;;;;;;5056065;28;20213;-85
2023/03/19 10:36:21;;;;;;;2.80;2.03;;;14.10;99.90;;;;;;5057381;28;20177;-83
2023/03/19 10:38:46;;;;;;;3.70;2.30;;;14.20;99.90;;;;;;5055335;28;20213;-82
2023/03/19 10:41:22;;;;;;;3.93;2.57;;;14.30;99.90;;;;;;5057012;28;20714;-82
2023/03/19 10:43:58;;;;;;;3.03;2.40;;;14.30;99.90;;;;;;5055853;28;20178;-82
2023/03/19 10:46:24;;;;;;;3.57;2.10;;;14.50;99.90;;;;;;5055295;28;20524;-85
2023/03/19 10:48:50;;;;;;;2.77;1.90;;;14.90;99.90;;;;;;5055485;28;20255;-84
2023/03/19 10:51:24;;;;;;;2.30;1.80;;;15.30;99.90;;;;;;5054463;28;20225;-87
2023/03/19 10:53:52;;;;;;;5.17;2.83;;;15.50;99.90;;;;;;5056078;28;20197;-86
2023/03/19 10:56:28;;;;;;;3.80;2.70;;;15.40;99.90;;;;;;5089475;28;20174;-86
2023/03/19 10:59:05;;;;;;;3.43;2.00;;;15.30;99.90;;;;;;5089178;28;20193;-87
2023/03/19 11:01:40;;;;;;;3.33;2.07;;;15.20;99.90;;;;;;5056728;28;20184;-86
2023/03/19 11:04:21;;;;;;;3.43;2.10;;;15.10;99.90;;;;;;5054975;28;20199;-88
2023/03/19 11:06:51;;;;;;;3.07;1.97;;;15.10;99.90;;;;;;5069017;28;20180;-87
2023/03/19 11:09:36;;;;;;;5.93;3.43;;;15.30;99.90;;;;;;5062825;28;20648;-84
2023/03/19 11:12:06;;;;;;;7.87;4.97;;;15.60;99.90;;;;;;5064266;28;20594;-84
2023/03/19 11:14:37;;;;;;;3.63;1.83;;;15.80;99.90;;;;;;5059080;28;20694;-84
2023/03/19 11:17:03;;;;;;;3.03;2.20;;;15.80;99.90;;;;;;5060448;28;20170;-84
2023/03/19 11:19:37;;;;;;;2.37;2.07;;;15.80;99.90;;;;;;5051923;28;20251;-87
2023/03/19 11:22:22;;;;;;;3.30;2.03;;;15.80;99.90;;;;;;5034324;28;20269;-88
2023/03/19 11:24:51;;;;;;;4.10;2.10;;;15.80;99.90;;;;;;5039674;28;20185;-85
2023/03/19 11:27:17;;;;;;;3.83;1.83;;;15.70;99.90;;;;;;5043845;28;20196;-86
2023/03/19 11:29:44;;;;;;;2.57;2.10;;;15.70;99.90;;;;;;5079432;28;20196;-84
2023/03/19 11:32:25;;;;;;;3.47;1.80;;;16.00;99.90;;;;;;5077881;28;20180;-86
2023/03/19 11:35:10;;;;;;;2.20;1.70;;;16.10;99.40;;;;;;5077685;28;20211;-88
2023/03/19 11:37:59;;;;;;;2.93;1.97;;;16.20;98.40;;;;;;5075839;28;20161;-84
2023/03/19 11:40:36;;;;;;;2.80;2.20;;;16.30;99.50;;;;;;5076803;28;20196;-83
2023/03/19 11:43:04;;;;;;;4.80;2.10;;;16.60;96.50;;;;;;5075783;28;20179;-83
2023/03/19 11:45:47;;;;;;;3.17;2.23;;;16.80;99.90;;;;;;5077988;28;20643;-84
2023/03/19 11:48:22;;;;;;;3.63;2.10;;;16.80;95.70;;;;;;5076964;28;20548;-84
2023/03/19 11:51:50;;;;;;;2.43;1.60;;;16.50;93.40;;;;;;5079063;28;20188;-82
2023/03/19 11:54:21;;;;;;;6.20;4.37;;;16.20;97.50;;;;;;5018004;28;20210;-86
2023/03/19 11:56:49;;;;;;;4.07;2.40;;;16.60;98.10;;;;;;5074986;28;20639;-78
2023/03/19 11:59:42;;;;;;;4.07;3.20;;;16.80;96.20;;;;;;5081092;28;20280;-79
2023/03/19 12:02:08;;;;;;;2.80;1.50;;;17.00;96.60;;;;;;5081291;28;20196;-79
2023/03/19 12:04:42;;;;;;;4.97;2.70;;;17.10;92.20;;;;;;5078468;28;20183;-78
2023/03/19 12:07:17;;;;;;;3.27;2.13;;;17.10;92.50;;;;;;5078062;28;20195;-80
2023/03/19 12:09:49;;;;;;;4.73;2.17;;;17.40;93.50;;;;;;5078106;28;20203;-79
2023/03/19 12:12:38;;;;;;;3.40;2.40;;;17.50;92.10;;;;;;5077922;28;20169;-79
2023/03/19 12:15:15;;;;;;;4.27;2.60;;;17.60;91.30;;;;;;5077836;28;20173;-78
2023/03/19 12:18:12;;;;;;;3.20;1.87;;;17.60;89.60;;;;;;5078394;28;20233;-79
2023/03/19 12:20:40;;;;;;;1.90;1.40;;;17.50;92.30;;;;;;5077125;28;20221;-78
2023/03/19 12:23:12;;;;;;;3.40;2.23;;;17.40;90.50;;;;;;5078299;28;20177;-78
2023/03/19 12:26:03;;;;;;;3.20;1.77;;;17.20;90.40;;;;;;5077219;28;20181;-79
2023/03/19 12:28:28;;;;;;;2.20;1.73;;;17.10;93.00;;;;;;5061233;28;20743;-83
2023/03/19 12:31:14;;;;;;;2.93;1.60;;;17.00;93.20;;;;;;5054746;28;20266;-84
2023/03/19 12:34:07;;;;;;;3.97;1.87;;;16.70;95.10;;;;;;5069889;28;20587;-84
2023/03/19 12:36:40;;;;;;;5.43;2.13;;;16.40;96.70;;;;;;5080249;28;20601;-83
2023/03/19 12:39:11;;;;;;;1.80;1.70;;;16.30;99.90;;;;;;5078609;28;20267;-84
2023/03/19 12:41:41;;;;;;;3.60;1.60;;;16.20;97.10;;;;;;5080219;28;20221;-84
2023/03/19 12:44:20;;;;;;;3.87;2.00;;;16.00;99.90;;;;;;5077735;28;20193;-84
2023/03/19 12:46:57;;;;;;;2.57;1.63;;;16.00;99.90;;;;;;5079116;28;20179;-84
2023/03/19 12:49:40;;;;;;;3.20;2.00;;;16.10;99.90;;;;;;5077086;28;20196;-84
2023/03/19 12:52:30;;;;;;;1.80;1.60;;;15.90;97.20;;;;;;5079551;28;20180;-84
2023/03/19 12:55:19;;;;;;;2.87;1.70;;;15.60;97.80;;;;;;5076755;28;20209;-84
2023/03/19 12:57:53;;;;;;;3.00;1.77;;;15.60;99.90;;;;;;5080634;28;20180;-83
2023/03/19 13:00:34;;;;;;;2.53;1.80;;;15.50;98.60;;;;;;5083017;28;20179;-84
2023/03/19 13:03:05;;;;;;;2.03;1.73;;;15.40;99.90;;;;;;5080764;28;20201;-86